sensor_id;sensor_type;location;lat;lon;timestamp;P1;durP1;ratioP1;P2;durP2;ratioP2
2658;SDS011;1339;53.304;10.406;2024-02-04T00:02:14;14.05;;;2.63;;
2658;SDS011;1339;53.304;10.406;2024-02-04T00:04:42;8.30;;;2.78;;
2658;SDS011;1339;53.304;10.406;2024-02-04T00:07:09;8.32;;;3.13;;
2658;SDS011;1339;53.304;10.406;2024-02-04T00:09:38;12.52;;;3.33;;
2658;SDS011;1339;53.304;10.406;2024-02-04T00:12:05;13.80;;;2.40;;
2658;SDS011;1339;53.304;10.406;2024-02-04T00:14:32;10.77;;;2.50;;
2658;SDS011;1339;53.304;10.406;2024-02-04T00:16:59;12.63;;;2.70;;
2658;SDS011;1339;53.304;10.406;2024-02-04T00:19:26;10.65;;;3.45;;
2658;SDS011;1339;53.304;10.406;2024-02-04T00:21:54;15.68;;;3.83;;
2658;SDS011;1339;53.304;10.406;2024-02-04T00:24:21;9.02;;;2.58;;
2658;SDS011;1339;53.304;10.406;2024-02-04T00:26:49;8.00;;;2.75;;
2658;SDS011;1339;53.304;10.406;2024-02-04T00:29:17;9.57;;;2.58;;
2658;SDS011;1339;53.304;10.406;2024-02-04T00:31:44;9.68;;;2.95;;
2658;SDS011;1339;53.304;10.406;2024-02-04T00:34:11;7.15;;;3.47;;
2658;SDS011;1339;53.304;10.406;2024-02-04T00:36:38;10.02;;;2.65;;
2658;SDS011;1339;53.304;10.406;2024-02-04T00:39:05;8.55;;;3.15;;
2658;SDS011;1339;53.304;10.406;2024-02-04T00:41:33;5.70;;;2.60;;
2658;SDS011;1339;53.304;10.406;2024-02-04T00:44:01;15.23;;;4.15;;
2658;SDS011;1339;53.304;10.406;2024-02-04T00:46:28;7.72;;;2.95;;
2658;SDS011;1339;53.304;10.406;2024-02-04T00:48:56;11.02;;;3.30;;
2658;SDS011;1339;53.304;10.406;2024-02-04T00:51:23;9.93;;;2.78;;
2658;SDS011;1339;53.304;10.406;2024-02-04T00:53:53;7.90;;;2.53;;
2658;SDS011;1339;53.304;10.406;2024-02-04T00:56:20;5.63;;;2.72;;
2658;SDS011;1339;53.304;10.406;2024-02-04T00:58:47;11.68;;;3.00;;
2658;SDS011;1339;53.304;10.406;2024-02-04T01:01:16;8.25;;;2.30;;
2658;SDS011;1339;53.304;10.406;2024-02-04T01:03:44;10.15;;;4.07;;
2658;SDS011;1339;53.304;10.406;2024-02-04T01:06:12;6.63;;;2.30;;
2658;SDS011;1339;53.304;10.406;2024-02-04T01:08:39;9.82;;;3.83;;
2658;SDS011;1339;53.304;10.406;2024-02-04T01:11:06;7.35;;;3.17;;
2658;SDS011;1339;53.304;10.406;2024-02-04T01:13:33;16.73;;;3.42;;
2658;SDS011;1339;53.304;10.406;2024-02-04T01:16:00;7.63;;;2.55;;
2658;SDS011;1339;53.304;10.406;2024-02-04T01:18:29;9.48;;;2.90;;
2658;SDS011;1339;53.304;10.406;2024-02-04T01:20:57;10.50;;;2.50;;
2658;SDS011;1339;53.304;10.406;2024-02-04T01:23:25;9.70;;;2.67;;
2658;SDS011;1339;53.304;10.406;2024-02-04T01:25:52;9.10;;;3.20;;
2658;SDS011;1339;53.304;10.406;2024-02-04T01:28:19;10.13;;;3.45;;
2658;SDS011;1339;53.304;10.406;2024-02-04T01:30:49;6.50;;;2.70;;
2658;SDS011;1339;53.304;10.406;2024-02-04T01:33:16;7.10;;;2.15;;
2658;SDS011;1339;53.304;10.406;2024-02-04T01:35:45;12.95;;;3.15;;
2658;SDS011;1339;53.304;10.406;2024-02-04T01:38:12;9.25;;;3.58;;
2658;SDS011;1339;53.304;10.406;2024-02-04T01:40:39;7.38;;;2.47;;
2658;SDS011;1339;53.304;10.406;2024-02-04T01:43:07;9.80;;;3.72;;
2658;SDS011;1339;53.304;10.406;2024-02-04T01:45:34;9.00;;;3.08;;
2658;SDS011;1339;53.304;10.406;2024-02-04T01:48:02;16.08;;;3.80;;
2658;SDS011;1339;53.304;10.406;2024-02-04T01:50:30;8.55;;;2.70;;
2658;SDS011;1339;53.304;10.406;2024-02-04T01:52:58;10.90;;;2.95;;
2658;SDS011;1339;53.304;10.406;2024-02-04T01:55:26;8.65;;;2.53;;
2658;SDS011;1339;53.304;10.406;2024-02-04T01:57:53;6.00;;;3.35;;
2658;SDS011;1339;53.304;10.406;2024-02-04T02:00:20;9.80;;;2.72;;
2658;SDS011;1339;53.304;10.406;2024-02-04T02:02:50;8.20;;;2.97;;
2658;SDS011;1339;53.304;10.406;2024-02-04T02:05:19;10.90;;;2.53;;
2658;SDS011;1339;53.304;10.406;2024-02-04T02:07:49;15.57;;;2.90;;
2658;SDS011;1339;53.304;10.406;2024-02-04T02:10:18;5.40;;;2.03;;
2658;SDS011;1339;53.304;10.406;2024-02-04T02:12:50;8.40;;;2.50;;
2658;SDS011;1339;53.304;10.406;2024-02-04T02:15:20;10.02;;;2.45;;
2658;SDS011;1339;53.304;10.406;2024-02-04T02:17:50;8.00;;;2.35;;
2658;SDS011;1339;53.304;10.406;2024-02-04T02:20:19;9.25;;;2.85;;
2658;SDS011;1339;53.304;10.406;2024-02-04T02:22:49;12.90;;;3.08;;
2658;SDS011;1339;53.304;10.406;2024-02-04T02:25:19;7.28;;;2.92;;
2658;SDS011;1339;53.304;10.406;2024-02-04T02:27:47;6.70;;;2.40;;
2658;SDS011;1339;53.304;10.406;2024-02-04T02:30:15;4.15;;;3.08;;
2658;SDS011;1339;53.304;10.406;2024-02-04T02:32:43;8.00;;;2.80;;
2658;SDS011;1339;53.304;10.406;2024-02-04T02:35:10;9.88;;;2.53;;
2658;SDS011;1339;53.304;10.406;2024-02-04T02:37:40;6.05;;;3.00;;
2658;SDS011;1339;53.304;10.406;2024-02-04T02:40:09;11.43;;;2.95;;
2658;SDS011;1339;53.304;10.406;2024-02-04T02:42:38;8.50;;;3.28;;
2658;SDS011;1339;53.304;10.406;2024-02-04T02:45:09;5.93;;;2.45;;
2658;SDS011;1339;53.304;10.406;2024-02-04T02:47:36;6.60;;;3.45;;
2658;SDS011;1339;53.304;10.406;2024-02-04T02:50:05;5.25;;;2.25;;
2658;SDS011;1339;53.304;10.406;2024-02-04T02:52:33;7.25;;;2.72;;
2658;SDS011;1339;53.304;10.406;2024-02-04T02:55:00;6.78;;;2.40;;
2658;SDS011;1339;53.304;10.406;2024-02-04T02:57:27;5.97;;;2.50;;
2658;SDS011;1339;53.304;10.406;2024-02-04T02:59:56;10.35;;;2.63;;
2658;SDS011;1339;53.304;10.406;2024-02-04T03:02:23;12.23;;;3.20;;
2658;SDS011;1339;53.304;10.406;2024-02-04T03:04:50;13.18;;;2.95;;
2658;SDS011;1339;53.304;10.406;2024-02-04T03:07:17;5.18;;;2.47;;
2658;SDS011;1339;53.304;10.406;2024-02-04T03:09:45;9.75;;;2.05;;
2658;SDS011;1339;53.304;10.406;2024-02-04T03:12:12;9.38;;;2.72;;
2658;SDS011;1339;53.304;10.406;2024-02-04T03:14:40;9.63;;;2.13;;
2658;SDS011;1339;53.304;10.406;2024-02-04T03:17:08;5.80;;;2.50;;
2658;SDS011;1339;53.304;10.406;2024-02-04T03:19:36;9.93;;;3.03;;
2658;SDS011;1339;53.304;10.406;2024-02-04T03:22:04;7.05;;;2.50;;
2658;SDS011;1339;53.304;10.406;2024-02-04T03:24:31;9.40;;;3.28;;
2658;SDS011;1339;53.304;10.406;2024-02-04T03:26:58;8.20;;;2.53;;
2658;SDS011;1339;53.304;10.406;2024-02-04T03:29:25;4.60;;;2.58;;
2658;SDS011;1339;53.304;10.406;2024-02-04T03:31:53;6.50;;;3.05;;
2658;SDS011;1339;53.304;10.406;2024-02-04T03:34:22;9.70;;;2.63;;
2658;SDS011;1339;53.304;10.406;2024-02-04T03:36:49;8.68;;;4.13;;
2658;SDS011;1339;53.304;10.406;2024-02-04T03:39:16;7.88;;;3.17;;
2658;SDS011;1339;53.304;10.406;2024-02-04T03:41:43;6.70;;;4.30;;
2658;SDS011;1339;53.304;10.406;2024-02-04T03:44:11;8.13;;;4.60;;
2658;SDS011;1339;53.304;10.406;2024-02-04T03:46:38;9.10;;;2.58;;
2658;SDS011;1339;53.304;10.406;2024-02-04T03:49:05;4.90;;;2.85;;
2658;SDS011;1339;53.304;10.406;2024-02-04T03:51:34;4.50;;;2.63;;
2658;SDS011;1339;53.304;10.406;2024-02-04T03:54:02;8.60;;;3.60;;
2658;SDS011;1339;53.304;10.406;2024-02-04T03:56:29;10.27;;;3.20;;
2658;SDS011;1339;53.304;10.406;2024-02-04T03:58:56;2.78;;;2.00;;
2658;SDS011;1339;53.304;10.406;2024-02-04T04:01:23;8.60;;;2.72;;
2658;SDS011;1339;53.304;10.406;2024-02-04T04:03:50;12.07;;;4.00;;
2658;SDS011;1339;53.304;10.406;2024-02-04T04:06:17;6.65;;;3.08;;
2658;SDS011;1339;53.304;10.406;2024-02-04T04:08:46;11.73;;;3.97;;
2658;SDS011;1339;53.304;10.406;2024-02-04T04:11:13;7.47;;;3.00;;
2658;SDS011;1339;53.304;10.406;2024-02-04T04:13:40;10.70;;;3.33;;
2658;SDS011;1339;53.304;10.406;2024-02-04T04:16:07;7.57;;;3.35;;
2658;SDS011;1339;53.304;10.406;2024-02-04T04:18:35;10.65;;;4.28;;
2658;SDS011;1339;53.304;10.406;2024-02-04T04:21:02;12.57;;;4.05;;
2658;SDS011;1339;53.304;10.406;2024-02-04T04:23:29;8.07;;;4.47;;
2658;SDS011;1339;53.304;10.406;2024-02-04T04:25:58;9.95;;;4.70;;
2658;SDS011;1339;53.304;10.406;2024-02-04T04:28:25;10.93;;;4.95;;
2658;SDS011;1339;53.304;10.406;2024-02-04T04:30:52;6.32;;;3.90;;
2658;SDS011;1339;53.304;10.406;2024-02-04T04:33:19;6.32;;;4.30;;
2658;SDS011;1339;53.304;10.406;2024-02-04T04:35:46;7.25;;;4.30;;
2658;SDS011;1339;53.304;10.406;2024-02-04T04:38:13;16.70;;;4.93;;
2658;SDS011;1339;53.304;10.406;2024-02-04T04:40:41;7.35;;;5.03;;
2658;SDS011;1339;53.304;10.406;2024-02-04T04:43:09;11.98;;;4.55;;
2658;SDS011;1339;53.304;10.406;2024-02-04T04:45:36;4.93;;;3.95;;
2658;SDS011;1339;53.304;10.406;2024-02-04T04:48:04;5.63;;;3.70;;
2658;SDS011;1339;53.304;10.406;2024-02-04T04:50:32;6.00;;;3.70;;
2658;SDS011;1339;53.304;10.406;2024-02-04T04:53:00;10.80;;;5.30;;
2658;SDS011;1339;53.304;10.406;2024-02-04T04:55:27;8.35;;;4.38;;
2658;SDS011;1339;53.304;10.406;2024-02-04T04:57:54;16.30;;;5.10;;
2658;SDS011;1339;53.304;10.406;2024-02-04T05:00:22;11.63;;;5.28;;
2658;SDS011;1339;53.304;10.406;2024-02-04T05:02:50;8.80;;;4.65;;
2658;SDS011;1339;53.304;10.406;2024-02-04T05:05:17;12.48;;;6.60;;
2658;SDS011;1339;53.304;10.406;2024-02-04T05:07:44;11.23;;;6.05;;
2658;SDS011;1339;53.304;10.406;2024-02-04T05:10:12;8.68;;;5.55;;
2658;SDS011;1339;53.304;10.406;2024-02-04T05:12:39;7.20;;;6.50;;
2658;SDS011;1339;53.304;10.406;2024-02-04T05:15:06;12.32;;;6.80;;
2658;SDS011;1339;53.304;10.406;2024-02-04T05:17:35;10.52;;;6.63;;
2658;SDS011;1339;53.304;10.406;2024-02-04T05:20:02;13.02;;;7.70;;
2658;SDS011;1339;53.304;10.406;2024-02-04T05:22:30;15.52;;;7.32;;
2658;SDS011;1339;53.304;10.406;2024-02-04T05:24:57;9.05;;;7.20;;
2658;SDS011;1339;53.304;10.406;2024-02-04T05:27:24;17.30;;;8.73;;
2658;SDS011;1339;53.304;10.406;2024-02-04T05:29:52;12.50;;;7.20;;
2658;SDS011;1339;53.304;10.406;2024-02-04T05:32:19;12.18;;;7.70;;
2658;SDS011;1339;53.304;10.406;2024-02-04T05:34:48;10.57;;;7.15;;
2658;SDS011;1339;53.304;10.406;2024-02-04T05:37:15;13.10;;;6.93;;
2658;SDS011;1339;53.304;10.406;2024-02-04T05:39:42;12.95;;;8.30;;
2658;SDS011;1339;53.304;10.406;2024-02-04T05:42:09;15.68;;;7.57;;
2658;SDS011;1339;53.304;10.406;2024-02-04T05:44:36;14.05;;;7.15;;
2658;SDS011;1339;53.304;10.406;2024-02-04T05:47:04;10.50;;;8.10;;
2658;SDS011;1339;53.304;10.406;2024-02-04T05:49:31;11.95;;;6.45;;
2658;SDS011;1339;53.304;10.406;2024-02-04T05:51:59;15.05;;;6.13;;
2658;SDS011;1339;53.304;10.406;2024-02-04T05:54:27;9.60;;;7.15;;
2658;SDS011;1339;53.304;10.406;2024-02-04T05:56:54;9.65;;;5.90;;
2658;SDS011;1339;53.304;10.406;2024-02-04T05:59:21;12.90;;;6.55;;
2658;SDS011;1339;53.304;10.406;2024-02-04T06:01:48;9.93;;;5.72;;
2658;SDS011;1339;53.304;10.406;2024-02-04T06:04:15;9.68;;;6.68;;
2658;SDS011;1339;53.304;10.406;2024-02-04T06:06:42;10.77;;;6.15;;
2658;SDS011;1339;53.304;10.406;2024-02-04T06:09:11;8.40;;;5.28;;
2658;SDS011;1339;53.304;10.406;2024-02-04T06:11:38;17.00;;;6.25;;
2658;SDS011;1339;53.304;10.406;2024-02-04T06:14:06;8.52;;;4.55;;
2658;SDS011;1339;53.304;10.406;2024-02-04T06:16:33;16.77;;;5.72;;
2658;SDS011;1339;53.304;10.406;2024-02-04T06:19:00;8.02;;;4.47;;
2658;SDS011;1339;53.304;10.406;2024-02-04T06:21:27;14.85;;;5.43;;
2658;SDS011;1339;53.304;10.406;2024-02-04T06:23:54;20.42;;;6.50;;
2658;SDS011;1339;53.304;10.406;2024-02-04T06:26:23;10.30;;;4.65;;
2658;SDS011;1339;53.304;10.406;2024-02-04T06:28:50;7.88;;;4.55;;
2658;SDS011;1339;53.304;10.406;2024-02-04T06:31:17;7.15;;;4.13;;
2658;SDS011;1339;53.304;10.406;2024-02-04T06:33:44;7.40;;;4.68;;
2658;SDS011;1339;53.304;10.406;2024-02-04T06:36:12;8.20;;;4.00;;
2658;SDS011;1339;53.304;10.406;2024-02-04T06:38:39;12.73;;;4.15;;
2658;SDS011;1339;53.304;10.406;2024-02-04T06:41:06;10.90;;;4.20;;
2658;SDS011;1339;53.304;10.406;2024-02-04T06:43:36;11.63;;;4.50;;
2658;SDS011;1339;53.304;10.406;2024-02-04T06:46:04;6.20;;;3.03;;
2658;SDS011;1339;53.304;10.406;2024-02-04T06:48:31;12.32;;;3.50;;
2658;SDS011;1339;53.304;10.406;2024-02-04T06:50:58;7.93;;;3.67;;
2658;SDS011;1339;53.304;10.406;2024-02-04T06:53:25;9.00;;;3.90;;
2658;SDS011;1339;53.304;10.406;2024-02-04T06:55:52;8.20;;;3.42;;
2658;SDS011;1339;53.304;10.406;2024-02-04T06:58:19;12.93;;;3.80;;
2658;SDS011;1339;53.304;10.406;2024-02-04T07:00:48;8.38;;;3.42;;
2658;SDS011;1339;53.304;10.406;2024-02-04T07:03:15;7.95;;;2.85;;
2658;SDS011;1339;53.304;10.406;2024-02-04T07:05:42;9.18;;;4.07;;
2658;SDS011;1339;53.304;10.406;2024-02-04T07:08:12;11.18;;;3.20;;
2658;SDS011;1339;53.304;10.406;2024-02-04T07:10:39;6.45;;;2.30;;
2658;SDS011;1339;53.304;10.406;2024-02-04T07:13:06;9.07;;;2.67;;
2658;SDS011;1339;53.304;10.406;2024-02-04T07:15:36;6.88;;;2.60;;
2658;SDS011;1339;53.304;10.406;2024-02-04T07:18:05;6.30;;;2.97;;
2658;SDS011;1339;53.304;10.406;2024-02-04T07:20:32;7.00;;;3.60;;
2658;SDS011;1339;53.304;10.406;2024-02-04T07:22:59;5.00;;;2.10;;
2658;SDS011;1339;53.304;10.406;2024-02-04T07:25:27;13.10;;;4.90;;
2658;SDS011;1339;53.304;10.406;2024-02-04T07:27:56;12.75;;;3.45;;
2658;SDS011;1339;53.304;10.406;2024-02-04T07:30:23;12.05;;;3.03;;
2658;SDS011;1339;53.304;10.406;2024-02-04T07:32:50;9.43;;;3.00;;
2658;SDS011;1339;53.304;10.406;2024-02-04T07:35:19;9.13;;;3.40;;
2658;SDS011;1339;53.304;10.406;2024-02-04T07:37:47;7.45;;;2.30;;
2658;SDS011;1339;53.304;10.406;2024-02-04T07:40:15;10.20;;;3.13;;
2658;SDS011;1339;53.304;10.406;2024-02-04T07:42:42;12.00;;;4.85;;
2658;SDS011;1339;53.304;10.406;2024-02-04T07:45:09;6.03;;;3.20;;
2658;SDS011;1339;53.304;10.406;2024-02-04T07:47:36;14.20;;;3.25;;
2658;SDS011;1339;53.304;10.406;2024-02-04T07:50:04;8.65;;;6.68;;
2658;SDS011;1339;53.304;10.406;2024-02-04T07:52:33;10.15;;;2.90;;
2658;SDS011;1339;53.304;10.406;2024-02-04T07:55:00;5.88;;;2.42;;
2658;SDS011;1339;53.304;10.406;2024-02-04T07:57:27;6.65;;;2.72;;
2658;SDS011;1339;53.304;10.406;2024-02-04T07:59:54;5.90;;;3.55;;
2658;SDS011;1339;53.304;10.406;2024-02-04T08:02:21;7.63;;;2.35;;
2658;SDS011;1339;53.304;10.406;2024-02-04T08:04:48;7.15;;;2.20;;
2658;SDS011;1339;53.304;10.406;2024-02-04T08:07:15;9.90;;;2.58;;
2658;SDS011;1339;53.304;10.406;2024-02-04T08:09:44;6.82;;;2.30;;
2658;SDS011;1339;53.304;10.406;2024-02-04T08:12:12;5.80;;;3.58;;
2658;SDS011;1339;53.304;10.406;2024-02-04T08:14:39;6.80;;;2.75;;
2658;SDS011;1339;53.304;10.406;2024-02-04T08:17:05;9.80;;;3.15;;
2658;SDS011;1339;53.304;10.406;2024-02-04T08:19:32;8.70;;;2.63;;
2658;SDS011;1339;53.304;10.406;2024-02-04T08:22:00;6.63;;;2.58;;
2658;SDS011;1339;53.304;10.406;2024-02-04T08:24:27;5.70;;;2.30;;
2658;SDS011;1339;53.304;10.406;2024-02-04T08:26:58;10.93;;;3.53;;
2658;SDS011;1339;53.304;10.406;2024-02-04T08:29:25;12.27;;;3.95;;
2658;SDS011;1339;53.304;10.406;2024-02-04T08:31:53;8.57;;;4.35;;
2658;SDS011;1339;53.304;10.406;2024-02-04T08:34:20;6.20;;;3.45;;
2658;SDS011;1339;53.304;10.406;2024-02-04T08:36:49;8.57;;;3.20;;
2658;SDS011;1339;53.304;10.406;2024-02-04T08:39:16;6.22;;;3.88;;
2658;SDS011;1339;53.304;10.406;2024-02-04T08:41:43;6.20;;;3.67;;
2658;SDS011;1339;53.304;10.406;2024-02-04T08:44:12;6.35;;;4.25;;
2658;SDS011;1339;53.304;10.406;2024-02-04T08:46:39;19.08;;;4.95;;
2658;SDS011;1339;53.304;10.406;2024-02-04T08:49:06;5.53;;;3.50;;
2658;SDS011;1339;53.304;10.406;2024-02-04T08:51:33;9.48;;;3.83;;
2658;SDS011;1339;53.304;10.406;2024-02-04T08:54:01;8.07;;;3.50;;
2658;SDS011;1339;53.304;10.406;2024-02-04T08:56:28;7.22;;;3.65;;
2658;SDS011;1339;53.304;10.406;2024-02-04T08:58:55;6.30;;;4.18;;
2658;SDS011;1339;53.304;10.406;2024-02-04T09:01:24;13.48;;;4.20;;
2658;SDS011;1339;53.304;10.406;2024-02-04T09:03:51;6.78;;;4.78;;
2658;SDS011;1339;53.304;10.406;2024-02-04T09:06:18;6.80;;;4.90;;
2658;SDS011;1339;53.304;10.406;2024-02-04T09:08:46;5.55;;;3.97;;
2658;SDS011;1339;53.304;10.406;2024-02-04T09:11:13;7.78;;;3.72;;
2658;SDS011;1339;53.304;10.406;2024-02-04T09:13:44;10.70;;;3.92;;
2658;SDS011;1339;53.304;10.406;2024-02-04T09:16:11;7.18;;;4.63;;
2658;SDS011;1339;53.304;10.406;2024-02-04T09:18:39;8.05;;;4.57;;
2658;SDS011;1339;53.304;10.406;2024-02-04T09:21:10;7.55;;;4.10;;
2658;SDS011;1339;53.304;10.406;2024-02-04T09:23:37;8.82;;;3.88;;
2658;SDS011;1339;53.304;10.406;2024-02-04T09:26:04;10.70;;;3.58;;
2658;SDS011;1339;53.304;10.406;2024-02-04T09:28:31;11.52;;;4.72;;
2658;SDS011;1339;53.304;10.406;2024-02-04T09:30:58;9.98;;;4.00;;
2658;SDS011;1339;53.304;10.406;2024-02-04T09:33:26;11.38;;;4.65;;
2658;SDS011;1339;53.304;10.406;2024-02-04T09:35:54;12.00;;;4.65;;
2658;SDS011;1339;53.304;10.406;2024-02-04T09:38:22;8.32;;;4.40;;
2658;SDS011;1339;53.304;10.406;2024-02-04T09:40:49;12.40;;;4.00;;
2658;SDS011;1339;53.304;10.406;2024-02-04T09:43:16;8.38;;;4.32;;
2658;SDS011;1339;53.304;10.406;2024-02-04T09:45:44;7.55;;;5.13;;
2658;SDS011;1339;53.304;10.406;2024-02-04T09:48:13;14.93;;;4.57;;
2658;SDS011;1339;53.304;10.406;2024-02-04T09:50:42;8.63;;;4.28;;
2658;SDS011;1339;53.304;10.406;2024-02-04T09:53:11;7.95;;;4.03;;
2658;SDS011;1339;53.304;10.406;2024-02-04T09:55:39;9.25;;;4.00;;
2658;SDS011;1339;53.304;10.406;2024-02-04T09:58:06;7.32;;;3.50;;
2658;SDS011;1339;53.304;10.406;2024-02-04T10:00:33;6.85;;;3.38;;
2658;SDS011;1339;53.304;10.406;2024-02-04T10:03:02;14.30;;;3.65;;
2658;SDS011;1339;53.304;10.406;2024-02-04T10:05:31;7.32;;;3.38;;
2658;SDS011;1339;53.304;10.406;2024-02-04T10:07:58;5.70;;;3.15;;
2658;SDS011;1339;53.304;10.406;2024-02-04T10:10:27;7.68;;;3.20;;
2658;SDS011;1339;53.304;10.406;2024-02-04T10:12:55;8.18;;;4.90;;
2658;SDS011;1339;53.304;10.406;2024-02-04T10:15:22;7.93;;;2.90;;
2658;SDS011;1339;53.304;10.406;2024-02-04T10:17:49;12.93;;;5.70;;
2658;SDS011;1339;53.304;10.406;2024-02-04T10:20:18;5.75;;;3.22;;
2658;SDS011;1339;53.304;10.406;2024-02-04T10:22:46;6.15;;;3.22;;
2658;SDS011;1339;53.304;10.406;2024-02-04T10:25:14;6.18;;;2.97;;
2658;SDS011;1339;53.304;10.406;2024-02-04T10:27:46;9.20;;;3.92;;
2658;SDS011;1339;53.304;10.406;2024-02-04T10:30:14;5.57;;;2.85;;
2658;SDS011;1339;53.304;10.406;2024-02-04T10:32:41;11.02;;;3.45;;
2658;SDS011;1339;53.304;10.406;2024-02-04T10:35:09;13.38;;;3.92;;
2658;SDS011;1339;53.304;10.406;2024-02-04T10:37:37;5.63;;;2.70;;
2658;SDS011;1339;53.304;10.406;2024-02-04T10:40:04;10.52;;;3.50;;
2658;SDS011;1339;53.304;10.406;2024-02-04T10:42:32;9.40;;;4.15;;
2658;SDS011;1339;53.304;10.406;2024-02-04T10:45:01;2.30;;;1.80;;
2658;SDS011;1339;53.304;10.406;2024-02-04T10:47:31;7.13;;;2.47;;
2658;SDS011;1339;53.304;10.406;2024-02-04T10:49:59;7.65;;;3.17;;
2658;SDS011;1339;53.304;10.406;2024-02-04T10:52:30;8.43;;;2.50;;
2658;SDS011;1339;53.304;10.406;2024-02-04T10:54:59;14.15;;;3.80;;
2658;SDS011;1339;53.304;10.406;2024-02-04T10:57:27;12.07;;;2.95;;
2658;SDS011;1339;53.304;10.406;2024-02-04T10:59:55;10.88;;;3.63;;
2658;SDS011;1339;53.304;10.406;2024-02-04T11:02:25;3.33;;;2.58;;
2658;SDS011;1339;53.304;10.406;2024-02-04T11:04:52;8.57;;;2.20;;
2658;SDS011;1339;53.304;10.406;2024-02-04T11:07:20;13.15;;;5.78;;
2658;SDS011;1339;53.304;10.406;2024-02-04T11:09:48;6.07;;;3.70;;
2658;SDS011;1339;53.304;10.406;2024-02-04T11:12:18;6.55;;;3.35;;
2658;SDS011;1339;53.304;10.406;2024-02-04T11:14:46;14.82;;;3.05;;
2658;SDS011;1339;53.304;10.406;2024-02-04T11:17:26;12.25;;;3.05;;
2658;SDS011;1339;53.304;10.406;2024-02-04T11:20:00;13.75;;;2.70;;
2658;SDS011;1339;53.304;10.406;2024-02-04T11:22:34;5.57;;;3.03;;
2658;SDS011;1339;53.304;10.406;2024-02-04T11:25:13;15.25;;;3.78;;
2658;SDS011;1339;53.304;10.406;2024-02-04T11:27:44;10.55;;;3.40;;
2658;SDS011;1339;53.304;10.406;2024-02-04T11:30:13;14.32;;;3.33;;
2658;SDS011;1339;53.304;10.406;2024-02-04T11:32:42;14.05;;;3.55;;
2658;SDS011;1339;53.304;10.406;2024-02-04T11:35:09;8.23;;;3.65;;
2658;SDS011;1339;53.304;10.406;2024-02-04T11:37:37;12.88;;;3.25;;
2658;SDS011;1339;53.304;10.406;2024-02-04T11:40:07;9.30;;;3.03;;
2658;SDS011;1339;53.304;10.406;2024-02-04T11:42:34;5.80;;;3.55;;
2658;SDS011;1339;53.304;10.406;2024-02-04T11:45:08;6.68;;;3.80;;
2658;SDS011;1339;53.304;10.406;2024-02-04T11:47:36;8.65;;;3.28;;
2658;SDS011;1339;53.304;10.406;2024-02-04T11:50:05;8.13;;;3.53;;
2658;SDS011;1339;53.304;10.406;2024-02-04T11:52:34;6.53;;;2.88;;
2658;SDS011;1339;53.304;10.406;2024-02-04T11:55:01;8.75;;;3.10;;
2658;SDS011;1339;53.304;10.406;2024-02-04T11:57:32;4.80;;;2.88;;
2658;SDS011;1339;53.304;10.406;2024-02-04T11:59:59;11.13;;;3.15;;
2658;SDS011;1339;53.304;10.406;2024-02-04T12:02:30;15.25;;;4.20;;
2658;SDS011;1339;53.304;10.406;2024-02-04T12:04:58;12.88;;;3.47;;
2658;SDS011;1339;53.304;10.406;2024-02-04T12:07:28;9.00;;;2.65;;
2658;SDS011;1339;53.304;10.406;2024-02-04T12:09:55;9.25;;;3.33;;
2658;SDS011;1339;53.304;10.406;2024-02-04T12:12:23;8.43;;;2.80;;
2658;SDS011;1339;53.304;10.406;2024-02-04T12:14:51;10.63;;;2.75;;
2658;SDS011;1339;53.304;10.406;2024-02-04T12:17:19;8.20;;;3.20;;
2658;SDS011;1339;53.304;10.406;2024-02-04T12:19:46;12.55;;;4.10;;
2658;SDS011;1339;53.304;10.406;2024-02-04T12:22:15;7.38;;;2.63;;
2658;SDS011;1339;53.304;10.406;2024-02-04T12:24:43;7.22;;;3.45;;
2658;SDS011;1339;53.304;10.406;2024-02-04T12:27:11;8.65;;;2.85;;
2658;SDS011;1339;53.304;10.406;2024-02-04T12:29:43;7.78;;;2.50;;
2658;SDS011;1339;53.304;10.406;2024-02-04T12:32:13;9.02;;;2.78;;
2658;SDS011;1339;53.304;10.406;2024-02-04T12:34:41;6.90;;;4.20;;
2658;SDS011;1339;53.304;10.406;2024-02-04T12:37:08;6.28;;;3.00;;
2658;SDS011;1339;53.304;10.406;2024-02-04T12:39:35;14.82;;;3.53;;
2658;SDS011;1339;53.304;10.406;2024-02-04T12:42:04;5.05;;;2.85;;
2658;SDS011;1339;53.304;10.406;2024-02-04T12:44:31;6.60;;;2.30;;
2658;SDS011;1339;53.304;10.406;2024-02-04T12:46:58;7.43;;;2.63;;
2658;SDS011;1339;53.304;10.406;2024-02-04T12:49:26;4.95;;;2.70;;
2658;SDS011;1339;53.304;10.406;2024-02-04T12:52:03;7.95;;;2.70;;
2658;SDS011;1339;53.304;10.406;2024-02-04T12:54:30;13.02;;;2.95;;
2658;SDS011;1339;53.304;10.406;2024-02-04T12:56:59;11.70;;;3.15;;
2658;SDS011;1339;53.304;10.406;2024-02-04T12:59:28;7.47;;;3.20;;
2658;SDS011;1339;53.304;10.406;2024-02-04T13:01:56;7.45;;;2.97;;
2658;SDS011;1339;53.304;10.406;2024-02-04T13:04:24;6.93;;;2.75;;
2658;SDS011;1339;53.304;10.406;2024-02-04T13:06:51;7.88;;;3.08;;
2658;SDS011;1339;53.304;10.406;2024-02-04T13:09:18;6.80;;;3.78;;
2658;SDS011;1339;53.304;10.406;2024-02-04T13:11:46;4.38;;;3.00;;
2658;SDS011;1339;53.304;10.406;2024-02-04T13:14:14;6.18;;;2.40;;
2658;SDS011;1339;53.304;10.406;2024-02-04T13:16:43;4.40;;;2.80;;
2658;SDS011;1339;53.304;10.406;2024-02-04T13:19:10;8.52;;;2.50;;
2658;SDS011;1339;53.304;10.406;2024-02-04T13:21:37;3.80;;;2.50;;
2658;SDS011;1339;53.304;10.406;2024-02-04T13:24:05;6.43;;;2.50;;
2658;SDS011;1339;53.304;10.406;2024-02-04T13:26:32;7.60;;;3.00;;
2658;SDS011;1339;53.304;10.406;2024-02-04T13:28:59;8.38;;;2.67;;
2658;SDS011;1339;53.304;10.406;2024-02-04T13:31:26;6.13;;;2.55;;
2658;SDS011;1339;53.304;10.406;2024-02-04T13:33:55;7.40;;;3.50;;
2658;SDS011;1339;53.304;10.406;2024-02-04T13:36:22;6.03;;;2.35;;
2658;SDS011;1339;53.304;10.406;2024-02-04T13:38:49;5.75;;;2.75;;
2658;SDS011;1339;53.304;10.406;2024-02-04T13:41:16;6.90;;;2.60;;
2658;SDS011;1339;53.304;10.406;2024-02-04T13:43:43;7.03;;;2.63;;
2658;SDS011;1339;53.304;10.406;2024-02-04T13:46:10;11.18;;;2.70;;
2658;SDS011;1339;53.304;10.406;2024-02-04T13:48:37;18.50;;;4.78;;
2658;SDS011;1339;53.304;10.406;2024-02-04T13:51:05;7.13;;;2.95;;
2658;SDS011;1339;53.304;10.406;2024-02-04T13:53:33;8.50;;;2.40;;
2658;SDS011;1339;53.304;10.406;2024-02-04T13:56:00;4.57;;;2.53;;
2658;SDS011;1339;53.304;10.406;2024-02-04T13:58:27;5.03;;;2.40;;
2658;SDS011;1339;53.304;10.406;2024-02-04T14:00:55;5.90;;;3.58;;
2658;SDS011;1339;53.304;10.406;2024-02-04T14:03:25;11.10;;;3.70;;
2658;SDS011;1339;53.304;10.406;2024-02-04T14:05:52;4.78;;;2.22;;
2658;SDS011;1339;53.304;10.406;2024-02-04T14:08:21;8.18;;;3.35;;
2658;SDS011;1339;53.304;10.406;2024-02-04T14:10:54;4.20;;;2.22;;
2658;SDS011;1339;53.304;10.406;2024-02-04T14:13:27;3.42;;;2.70;;
2658;SDS011;1339;53.304;10.406;2024-02-04T14:15:54;7.28;;;2.78;;
2658;SDS011;1339;53.304;10.406;2024-02-04T14:18:21;8.20;;;3.55;;
2658;SDS011;1339;53.304;10.406;2024-02-04T14:20:48;13.35;;;3.03;;
2658;SDS011;1339;53.304;10.406;2024-02-04T14:23:15;9.10;;;2.70;;
2658;SDS011;1339;53.304;10.406;2024-02-04T14:25:44;5.93;;;2.55;;
2658;SDS011;1339;53.304;10.406;2024-02-04T14:28:11;7.47;;;3.08;;
2658;SDS011;1339;53.304;10.406;2024-02-04T14:30:38;10.40;;;2.53;;
2658;SDS011;1339;53.304;10.406;2024-02-04T14:33:06;6.57;;;2.65;;
2658;SDS011;1339;53.304;10.406;2024-02-04T14:35:33;9.55;;;2.50;;
2658;SDS011;1339;53.304;10.406;2024-02-04T14:38:00;5.30;;;2.03;;
2658;SDS011;1339;53.304;10.406;2024-02-04T14:40:29;4.55;;;2.30;;
2658;SDS011;1339;53.304;10.406;2024-02-04T14:42:57;5.78;;;2.60;;
2658;SDS011;1339;53.304;10.406;2024-02-04T14:45:25;7.32;;;2.65;;
2658;SDS011;1339;53.304;10.406;2024-02-04T14:47:53;15.18;;;3.53;;
2658;SDS011;1339;53.304;10.406;2024-02-04T14:50:20;4.20;;;2.35;;
2658;SDS011;1339;53.304;10.406;2024-02-04T14:52:47;9.98;;;2.90;;
2658;SDS011;1339;53.304;10.406;2024-02-04T14:55:14;7.05;;;2.25;;
2658;SDS011;1339;53.304;10.406;2024-02-04T14:57:42;8.18;;;2.17;;
2658;SDS011;1339;53.304;10.406;2024-02-04T15:00:11;8.30;;;2.22;;
2658;SDS011;1339;53.304;10.406;2024-02-04T15:02:39;6.82;;;1.77;;